Hc Svea Kim — V2BB — position and weather

sailwx.info

Track history (hours):
 
Tides and Currents Weather Stations Pressure Air Temp Water Temp Dewpoint Dewpoint Depression Visibility Wind Speed Wind Dir Waves Ship Positions

Hc Svea Kim

Last reported at 2017-Jun-22 09:33 UTC. Time now 2017-Jun-23 01:56 UTC.
Position N 58°45' W 004°24'.

Length 129 m; draft 7.2 m.

Type: Cargo ship. MMSI: 304182000.

Date/timePositionNaut miles runAvg speedWind from/ knotsBaromVisibWave heightAir tempDewpointWater temp
2017-Jun-22 09:33N 58°45' W 004°24'1810.9
2017-Jun-22 07:56N 58°45' W 003°50'410.0
2017-Jun-22 07:30N 58°45' W 003°42'6 9.9
2017-Jun-22 06:52N 58°44' W 003°30'10 8.4
2017-Jun-22 05:41N 58°44' W 003°11'1 7.5
2017-Jun-22 05:30N 58°43' W 003°08'3 6.1
2017-Jun-22 05:00N 58°42' W 003°03'4 8.4
2017-Jun-22 04:30N 58°39' W 002°57'510.3
2017-Jun-22 04:00N 58°37' W 002°48'611.6
2017-Jun-22 03:30N 58°37' W 002°37'41111.2
2017-Jun-20 14:55N 57°48' E 010°17'5 9.7
2017-Jun-20 14:24N 57°49' E 010°26'1710.2
2017-Jun-20 12:45N 57°50' E 010°58'210.4
2017-Jun-20 12:30N 57°50' E 011°03'510.6
2017-Jun-20 12:00N 57°50' E 011°13'610.8
2017-Jun-20 11:29N 57°51' E 011°23'510.9
2017-Jun-20 11:00N 57°54' E 011°31'510.2
2017-Jun-20 10:30N 57°56' E 011°40'612.0
2017-Jun-20 09:58N 58°01' E 011°47'511.3
2017-Jun-20 09:30N 58°06' E 011°48'711.4
2017-Jun-20 08:55N 58°13' E 011°51'612.2
2017-Jun-20 08:25N 58°19' E 011°48'9 0.3
2017-Jun-19 05:19N 58°10' E 011°51'310.4
2017-Jun-19 05:00N 58°07' E 011°49'510.1
2017-Jun-19 04:31N 58°02' E 011°47'612.7
2017-Jun-19 04:00N 57°56' E 011°41'612.5
2017-Jun-19 03:30N 57°53' E 011°31'4 7.2
2017-Jun-19 03:00N 57°52' E 011°24'3 5.2
2017-Jun-19 02:23N 57°55' E 011°23'0 0.1
2017-Jun-19 01:59N 57°55' E 011°23'0 0.0
2017-Jun-19 00:56N 57°55' E 011°23'0 0.0
2017-Jun-18 21:41N 57°55' E 011°23'0 0.0
2017-Jun-18 21:02N 57°55' E 011°23'0 0.0
2017-Jun-18 20:56N 57°55' E 011°23'0 0.0
2017-Jun-18 20:29N 57°55' E 011°23'0 0.0
2017-Jun-18 19:59N 57°55' E 011°23'0 0.0
2017-Jun-18 19:23N 57°55' E 011°23'0 0.0
2017-Jun-18 18:59N 57°55' E 011°23'0 0.1
2017-Jun-18 18:29N 57°55' E 011°23'0 0.0
2017-Jun-18 17:59N 57°55' E 011°23'0 0.0
2017-Jun-18 17:26N 57°55' E 011°23'0 0.1
2017-Jun-18 16:59N 57°55' E 011°23'0 0.0
2017-Jun-18 16:23N 57°55' E 011°23'0 0.0
2017-Jun-18 14:38N 57°55' E 011°23'0 0.0
2017-Jun-18 13:59N 57°55' E 011°23'0 0.0
2017-Jun-18 13:29N 57°55' E 011°23'0 0.0
2017-Jun-18 12:17N 57°55' E 011°23'0 0.0
2017-Jun-18 11:50N 57°55' E 011°23'0 0.0
2017-Jun-18 11:11N 57°55' E 011°23'0 0.0
2017-Jun-18 09:32N 57°55' E 011°23'0 0.0
2017-Jun-18 09:11N 57°55' E 011°23'0 0.0
2017-Jun-18 08:56N 57°55' E 011°23'0 0.0
2017-Jun-18 08:29N 57°55' E 011°23'0 0.0
2017-Jun-18 07:56N 57°55' E 011°23'0 0.0
2017-Jun-18 07:29N 57°55' E 011°23'0 0.0
2017-Jun-18 06:59N 57°55' E 011°23'0 0.0
2017-Jun-18 06:29N 57°55' E 011°23'0 0.0
2017-Jun-18 05:53N 57°55' E 011°23'0 0.0
2017-Jun-18 05:26N 57°55' E 011°23'0 0.0
2017-Jun-18 04:47N 57°55' E 011°23'0 0.4
2017-Jun-18 03:45N 57°55' E 011°22'1 5.2
2017-Jun-18 03:29N 57°54' E 011°22'611.5
2017-Jun-18 03:00N 57°49' E 011°23'611.3
2017-Jun-18 02:28N 57°43' E 011°24'510.8
2017-Jun-18 02:00N 57°39' E 011°30'511.0
2017-Jun-18 01:30N 57°35' E 011°38'2 3.9
2017-Jun-18 01:00N 57°35' E 011°41'0 0.0
2017-Jun-18 00:27N 57°35' E 011°41'0 0.0
2017-Jun-18 00:00N 57°35' E 011°41'0 0.0
2017-Jun-17 23:27N 57°35' E 011°41'0 0.0
2017-Jun-17 22:57N 57°35' E 011°41'0 0.1
2017-Jun-17 22:27N 57°36' E 011°41'0 0.0
2017-Jun-17 21:57N 57°36' E 011°41'0 0.0
2017-Jun-17 21:30N 57°36' E 011°41'0 0.0
2017-Jun-17 21:00N 57°36' E 011°41'0 0.0
2017-Jun-17 20:30N 57°36' E 011°41'0 0.0
2017-Jun-17 20:00N 57°36' E 011°41'0 0.0
2017-Jun-17 19:30N 57°36' E 011°41'0 0.1
2017-Jun-17 18:57N 57°36' E 011°41'0 0.3
2017-Jun-17 18:31N 57°35' E 011°41'3 5.6
2017-Jun-17 18:00N 57°33' E 011°38'612.5
2017-Jun-17 17:29N 57°27' E 011°37'612.9
2017-Jun-17 17:00N 57°21' E 011°37'712.6
2017-Jun-17 16:29N 57°14' E 011°37'813.1
2017-Jun-17 15:54N 57°07' E 011°40'513.1
2017-Jun-17 15:30N 57°02' E 011°43'712.6
2017-Jun-17 14:58N 56°56' E 011°48'712.2
2017-Jun-17 14:26N 56°49' E 011°52'1212.0
2017-Jun-17 13:27N 56°38' E 011°58'612.0
2017-Jun-17 12:57N 56°32' E 012°00'1811.8
2017-Jun-17 11:28N 56°16' E 012°11'612.5
2017-Jun-17 11:00N 56°12' E 012°20'612.2
2017-Jun-17 10:30N 56°09' E 012°29'611.8
2017-Jun-17 10:00N 56°05' E 012°37'511.0
2017-Jun-17 09:30N 56°00' E 012°41'611.6
2017-Jun-17 09:00N 55°55' E 012°45'611.9
2017-Jun-17 08:30N 55°49' E 012°43'612.4
2017-Jun-17 08:00N 55°43' E 012°41'611.5
2017-Jun-17 07:30N 55°37' E 012°42'611.1
2017-Jun-17 07:00N 55°31' E 012°42'611.9
2017-Jun-17 06:30N 55°25' E 012°42'611.8
2017-Jun-17 06:00N 55°19' E 012°41'610.9
2017-Jun-17 05:29N 55°17' E 012°49'611.9
2017-Jun-17 05:00N 55°16' E 012°59'712.3
2017-Jun-17 04:26N 55°16' E 013°11'1312.6
2017-Jun-17 03:26N 55°15' E 013°33'612.4
2017-Jun-17 03:00N 55°15' E 013°43'612.5
2017-Jun-17 02:30N 55°14' E 013°54'612.5
2017-Jun-17 02:00N 55°14' E 014°05'612.2
2017-Jun-17 01:31N 55°14' E 014°15'612.7
2017-Jun-17 01:01N 55°19' E 014°22'612.9
2017-Jun-17 00:30N 55°24' E 014°30'612.7
2017-Jun-17 00:01N 55°28' E 014°38'612.5
2017-Jun-16 23:31N 55°30' E 014°48'712.7
2017-Jun-16 23:00N 55°33' E 014°59'612.9
2017-Jun-16 22:30N 55°36' E 015°08'712.8
2017-Jun-16 21:56N 55°40' E 015°20'512.6
2017-Jun-16 21:30N 55°42' E 015°28'612.7
2017-Jun-16 21:00N 55°46' E 015°38'612.9
2017-Jun-16 20:30N 55°49' E 015°48'612.9
2017-Jun-16 20:00N 55°52' E 015°58'612.8
2017-Jun-16 19:30N 55°56' E 016°07'612.8
2017-Jun-16 19:00N 55°59' E 016°17'613.0
2017-Jun-16 18:30N 56°02' E 016°27'612.9
2017-Jun-16 18:00N 56°06' E 016°37'612.1
2017-Jun-16 17:30N 56°09' E 016°45'612.8
2017-Jun-16 17:00N 56°15' E 016°49'712.9
2017-Jun-16 16:27N 56°22' E 016°54'11512.7
2017-Jun-16 07:25N 58°07' E 018°22'513.1
2017-Jun-16 07:00N 58°11' E 018°28'713.0
2017-Jun-16 06:30N 58°17' E 018°34'913.0
2017-Jun-16 05:46N 58°25' E 018°43'413.0
2017-Jun-16 05:29N 58°29' E 018°47'613.1
2017-Jun-16 05:00N 58°34' E 018°53'712.8
2017-Jun-16 04:27N 58°40' E 018°60'612.7
2017-Jun-16 04:00N 58°45' E 019°05'612.8
2017-Jun-16 03:30N 58°51' E 019°11'613.0
2017-Jun-16 03:00N 58°56' E 019°18'612.7
2017-Jun-16 02:30N 59°02' E 019°24'612.6
2017-Jun-16 02:00N 59°07' E 019°30'612.7
2017-Jun-16 01:30N 59°13' E 019°36'612.6
2017-Jun-16 01:00N 59°18' E 019°42'612.8
2017-Jun-16 00:30N 59°24' E 019°49'713.0
2017-Jun-16 00:00N 59°29' E 019°55'612.5
2017-Jun-15 23:30N 59°35' E 019°58'713.1
2017-Jun-15 23:00N 59°41' E 019°51'612.9
2017-Jun-15 22:30N 59°45' E 019°42'613.0
2017-Jun-15 22:00N 59°51' E 019°34'612.9
2017-Jun-15 21:30N 59°56' E 019°26'613.0
2017-Jun-15 21:00N 60°01' E 019°18'612.8
2017-Jun-15 20:30N 60°06' E 019°10'612.8
2017-Jun-15 20:01N 60°11' E 019°02'612.9
2017-Jun-15 19:30N 60°17' E 019°01'612.8
2017-Jun-15 19:00N 60°23' E 018°59'612.8
2017-Jun-15 18:30N 60°30' E 018°58'612.9
2017-Jun-15 18:00N 60°36' E 018°54'713.1
2017-Jun-15 17:30N 60°42' E 018°50'713.2
2017-Jun-15 17:00N 60°49' E 018°47'713.8
2017-Jun-15 16:30N 60°55' E 018°43'612.4
2017-Jun-15 16:00N 61°01' E 018°39'713.1
2017-Jun-15 15:30N 61°07' E 018°32'611.2
2017-Jun-15 15:00N 61°10' E 018°23'1313.2
2017-Jun-15 14:00N 61°11' E 017°55'713.1
2017-Jun-15 13:30N 61°11' E 017°42'713.1
2017-Jun-15 13:00N 61°11' E 017°28'  
Track history (hours):
 
Tides and Currents Weather Stations Pressure Air Temp Water Temp Dewpoint Dewpoint Depression Visibility Wind Speed Wind Dir Waves Ship Positions

Hc Svea Kim

Last reported at 2017-Jun-22 09:33 UTC. Time now 2017-Jun-23 01:56 UTC.
Position N 58°45' W 004°24'.

Length 129 m; draft 7.2 m.

Type: Cargo ship. MMSI: 304182000.

Date/timePositionNaut miles runAvg speedWind from/ knotsBaromVisibWave heightAir tempDewpointWater temp
2017-Jun-22 09:33N 58°45' W 004°24'1810.9
2017-Jun-22 07:56N 58°45' W 003°50'410.0
2017-Jun-22 07:30N 58°45' W 003°42'6 9.9
2017-Jun-22 06:52N 58°44' W 003°30'10 8.4
2017-Jun-22 05:41N 58°44' W 003°11'1 7.5
2017-Jun-22 05:30N 58°43' W 003°08'3 6.1
2017-Jun-22 05:00N 58°42' W 003°03'4 8.4
2017-Jun-22 04:30N 58°39' W 002°57'510.3
2017-Jun-22 04:00N 58°37' W 002°48'611.6
2017-Jun-22 03:30N 58°37' W 002°37'41111.2
2017-Jun-20 14:55N 57°48' E 010°17'5 9.7
2017-Jun-20 14:24N 57°49' E 010°26'1710.2
2017-Jun-20 12:45N 57°50' E 010°58'210.4
2017-Jun-20 12:30N 57°50' E 011°03'510.6
2017-Jun-20 12:00N 57°50' E 011°13'610.8
2017-Jun-20 11:29N 57°51' E 011°23'510.9
2017-Jun-20 11:00N 57°54' E 011°31'510.2
2017-Jun-20 10:30N 57°56' E 011°40'612.0
2017-Jun-20 09:58N 58°01' E 011°47'511.3
2017-Jun-20 09:30N 58°06' E 011°48'711.4
2017-Jun-20 08:55N 58°13' E 011°51'612.2
2017-Jun-20 08:25N 58°19' E 011°48'9 0.3
2017-Jun-19 05:19N 58°10' E 011°51'310.4
2017-Jun-19 05:00N 58°07' E 011°49'510.1
2017-Jun-19 04:31N 58°02' E 011°47'612.7
2017-Jun-19 04:00N 57°56' E 011°41'612.5
2017-Jun-19 03:30N 57°53' E 011°31'4 7.2
2017-Jun-19 03:00N 57°52' E 011°24'3 5.2
2017-Jun-19 02:23N 57°55' E 011°23'0 0.1
2017-Jun-19 01:59N 57°55' E 011°23'0 0.0
2017-Jun-19 00:56N 57°55' E 011°23'0 0.0
2017-Jun-18 21:41N 57°55' E 011°23'0 0.0
2017-Jun-18 21:02N 57°55' E 011°23'0 0.0
2017-Jun-18 20:56N 57°55' E 011°23'0 0.0
2017-Jun-18 20:29N 57°55' E 011°23'0 0.0
2017-Jun-18 19:59N 57°55' E 011°23'0 0.0
2017-Jun-18 19:23N 57°55' E 011°23'0 0.0
2017-Jun-18 18:59N 57°55' E 011°23'0 0.1
2017-Jun-18 18:29N 57°55' E 011°23'0 0.0
2017-Jun-18 17:59N 57°55' E 011°23'0 0.0
2017-Jun-18 17:26N 57°55' E 011°23'0 0.1
2017-Jun-18 16:59N 57°55' E 011°23'0 0.0
2017-Jun-18 16:23N 57°55' E 011°23'0 0.0
2017-Jun-18 14:38N 57°55' E 011°23'0 0.0
2017-Jun-18 13:59N 57°55' E 011°23'0 0.0
2017-Jun-18 13:29N 57°55' E 011°23'0 0.0
2017-Jun-18 12:17N 57°55' E 011°23'0 0.0
2017-Jun-18 11:50N 57°55' E 011°23'0 0.0
2017-Jun-18 11:11N 57°55' E 011°23'0 0.0
2017-Jun-18 09:32N 57°55' E 011°23'0 0.0
2017-Jun-18 09:11N 57°55' E 011°23'0 0.0
2017-Jun-18 08:56N 57°55' E 011°23'0 0.0
2017-Jun-18 08:29N 57°55' E 011°23'0 0.0
2017-Jun-18 07:56N 57°55' E 011°23'0 0.0
2017-Jun-18 07:29N 57°55' E 011°23'0 0.0
2017-Jun-18 06:59N 57°55' E 011°23'0 0.0
2017-Jun-18 06:29N 57°55' E 011°23'0 0.0
2017-Jun-18 05:53N 57°55' E 011°23'0 0.0
2017-Jun-18 05:26N 57°55' E 011°23'0 0.0
2017-Jun-18 04:47N 57°55' E 011°23'0 0.4
2017-Jun-18 03:45N 57°55' E 011°22'1 5.2
2017-Jun-18 03:29N 57°54' E 011°22'611.5
2017-Jun-18 03:00N 57°49' E 011°23'611.3
2017-Jun-18 02:28N 57°43' E 011°24'510.8
2017-Jun-18 02:00N 57°39' E 011°30'511.0
2017-Jun-18 01:30N 57°35' E 011°38'2 3.9
2017-Jun-18 01:00N 57°35' E 011°41'0 0.0
2017-Jun-18 00:27N 57°35' E 011°41'0 0.0
2017-Jun-18 00:00N 57°35' E 011°41'0 0.0
2017-Jun-17 23:27N 57°35' E 011°41'0 0.0
2017-Jun-17 22:57N 57°35' E 011°41'0 0.1
2017-Jun-17 22:27N 57°36' E 011°41'0 0.0
2017-Jun-17 21:57N 57°36' E 011°41'0 0.0
2017-Jun-17 21:30N 57°36' E 011°41'0 0.0
2017-Jun-17 21:00N 57°36' E 011°41'0 0.0
2017-Jun-17 20:30N 57°36' E 011°41'0 0.0
2017-Jun-17 20:00N 57°36' E 011°41'0 0.0
2017-Jun-17 19:30N 57°36' E 011°41'0 0.1
2017-Jun-17 18:57N 57°36' E 011°41'0 0.3
2017-Jun-17 18:31N 57°35' E 011°41'3 5.6
2017-Jun-17 18:00N 57°33' E 011°38'612.5
2017-Jun-17 17:29N 57°27' E 011°37'612.9
2017-Jun-17 17:00N 57°21' E 011°37'712.6
2017-Jun-17 16:29N 57°14' E 011°37'813.1
2017-Jun-17 15:54N 57°07' E 011°40'513.1
2017-Jun-17 15:30N 57°02' E 011°43'712.6
2017-Jun-17 14:58N 56°56' E 011°48'712.2
2017-Jun-17 14:26N 56°49' E 011°52'1212.0
2017-Jun-17 13:27N 56°38' E 011°58'612.0
2017-Jun-17 12:57N 56°32' E 012°00'1811.8
2017-Jun-17 11:28N 56°16' E 012°11'612.5
2017-Jun-17 11:00N 56°12' E 012°20'612.2
2017-Jun-17 10:30N 56°09' E 012°29'611.8
2017-Jun-17 10:00N 56°05' E 012°37'511.0
2017-Jun-17 09:30N 56°00' E 012°41'611.6
2017-Jun-17 09:00N 55°55' E 012°45'611.9
2017-Jun-17 08:30N 55°49' E 012°43'612.4
2017-Jun-17 08:00N 55°43' E 012°41'611.5
2017-Jun-17 07:30N 55°37' E 012°42'611.1
2017-Jun-17 07:00N 55°31' E 012°42'611.9
2017-Jun-17 06:30N 55°25' E 012°42'611.8
2017-Jun-17 06:00N 55°19' E 012°41'610.9
2017-Jun-17 05:29N 55°17' E 012°49'611.9
2017-Jun-17 05:00N 55°16' E 012°59'712.3
2017-Jun-17 04:26N 55°16' E 013°11'1312.6
2017-Jun-17 03:26N 55°15' E 013°33'612.4
2017-Jun-17 03:00N 55°15' E 013°43'612.5
2017-Jun-17 02:30N 55°14' E 013°54'612.5
2017-Jun-17 02:00N 55°14' E 014°05'612.2
2017-Jun-17 01:31N 55°14' E 014°15'612.7
2017-Jun-17 01:01N 55°19' E 014°22'612.9
2017-Jun-17 00:30N 55°24' E 014°30'612.7
2017-Jun-17 00:01N 55°28' E 014°38'612.5
2017-Jun-16 23:31N 55°30' E 014°48'712.7
2017-Jun-16 23:00N 55°33' E 014°59'612.9
2017-Jun-16 22:30N 55°36' E 015°08'712.8
2017-Jun-16 21:56N 55°40' E 015°20'512.6
2017-Jun-16 21:30N 55°42' E 015°28'612.7
2017-Jun-16 21:00N 55°46' E 015°38'612.9
2017-Jun-16 20:30N 55°49' E 015°48'612.9
2017-Jun-16 20:00N 55°52' E 015°58'612.8
2017-Jun-16 19:30N 55°56' E 016°07'612.8
2017-Jun-16 19:00N 55°59' E 016°17'613.0
2017-Jun-16 18:30N 56°02' E 016°27'612.9
2017-Jun-16 18:00N 56°06' E 016°37'612.1
2017-Jun-16 17:30N 56°09' E 016°45'612.8
2017-Jun-16 17:00N 56°15' E 016°49'712.9
2017-Jun-16 16:27N 56°22' E 016°54'11512.7
2017-Jun-16 07:25N 58°07' E 018°22'513.1
2017-Jun-16 07:00N 58°11' E 018°28'713.0
2017-Jun-16 06:30N 58°17' E 018°34'913.0
2017-Jun-16 05:46N 58°25' E 018°43'413.0
2017-Jun-16 05:29N 58°29' E 018°47'613.1
2017-Jun-16 05:00N 58°34' E 018°53'712.8
2017-Jun-16 04:27N 58°40' E 018°60'612.7
2017-Jun-16 04:00N 58°45' E 019°05'612.8
2017-Jun-16 03:30N 58°51' E 019°11'613.0
2017-Jun-16 03:00N 58°56' E 019°18'612.7
2017-Jun-16 02:30N 59°02' E 019°24'612.6
2017-Jun-16 02:00N 59°07' E 019°30'612.7
2017-Jun-16 01:30N 59°13' E 019°36'612.6
2017-Jun-16 01:00N 59°18' E 019°42'612.8
2017-Jun-16 00:30N 59°24' E 019°49'713.0
2017-Jun-16 00:00N 59°29' E 019°55'612.5
2017-Jun-15 23:30N 59°35' E 019°58'713.1
2017-Jun-15 23:00N 59°41' E 019°51'612.9
2017-Jun-15 22:30N 59°45' E 019°42'613.0
2017-Jun-15 22:00N 59°51' E 019°34'612.9
2017-Jun-15 21:30N 59°56' E 019°26'613.0
2017-Jun-15 21:00N 60°01' E 019°18'612.8
2017-Jun-15 20:30N 60°06' E 019°10'612.8
2017-Jun-15 20:01N 60°11' E 019°02'612.9
2017-Jun-15 19:30N 60°17' E 019°01'612.8
2017-Jun-15 19:00N 60°23' E 018°59'612.8
2017-Jun-15 18:30N 60°30' E 018°58'612.9
2017-Jun-15 18:00N 60°36' E 018°54'713.1
2017-Jun-15 17:30N 60°42' E 018°50'713.2
2017-Jun-15 17:00N 60°49' E 018°47'713.8
2017-Jun-15 16:30N 60°55' E 018°43'612.4
2017-Jun-15 16:00N 61°01' E 018°39'713.1
2017-Jun-15 15:30N 61°07' E 018°32'611.2
2017-Jun-15 15:00N 61°10' E 018°23'1313.2
2017-Jun-15 14:00N 61°11' E 017°55'713.1
2017-Jun-15 13:30N 61°11' E 017°42'713.1
2017-Jun-15 13:00N 61°11' E 017°28'  

Dump ship's entire track history